This is the latest recevied weather packets stored in our database for station/object DM8MH-13. If no packets are shown the sender has not sent any weather packets the latest 1 day(s).
| Time | Temp. | Humidity | Pressure | Rain* | Wind** | Luminosity | Snow |
|---|---|---|---|---|---|---|---|
| 1777996270 | 20° C | 68% | 1005.8 hPa | 0 mm | 1.34 m/s, 53° | 133 W/m² | - |
| 1777995672 | 20° C | 68% | 1006 hPa | 0 mm | 1.79 m/s, 76° | 260 W/m² | - |
| 1777995078 | 20° C | 68% | 1006 hPa | 0 mm | 1.79 m/s, 50° | 277 W/m² | - |
| 1777994472 | 20° C | 68% | 1006.1 hPa | 0 mm | 1.79 m/s, 32° | 353 W/m² | - |
| 1777993872 | 20.56° C | 67% | 1006.1 hPa | 0 mm | 0.89 m/s, 46° | 178 W/m² | - |
| 1777993272 | 20.56° C | 68% | 1006.2 hPa | 0 mm | 1.34 m/s, 157° | 442 W/m² | - |
| 1777992672 | 20.56° C | 66% | 1006.3 hPa | 0 mm | 0.89 m/s, 5° | 211 W/m² | - |
| 1777992073 | 20.56° C | 67% | 1006.4 hPa | 0 mm | 1.79 m/s, 88° | 553 W/m² | - |
| 1777991474 | 20.56° C | 68% | 1006.6 hPa | 0 mm | 1.79 m/s, 101° | 575 W/m² | - |
| 1777990873 | 20° C | 67% | 1006.6 hPa | 0 mm | 1.34 m/s, 37° | 239 W/m² | - |
| 1777990272 | 20.56° C | 68% | 1006.7 hPa | 0 mm | 1.79 m/s, 44° | 371 W/m² | - |
| 1777989673 | 20.56° C | 66% | 1006.9 hPa | 0 mm | 1.34 m/s, 30° | 502 W/m² | - |
| 1777989073 | 20.56° C | 68% | 1006.9 hPa | 0 mm | 1.34 m/s, 45° | 450 W/m² | - |
| 1777988473 | 20.56° C | 69% | 1007.1 hPa | 0 mm | 0.45 m/s, 21° | 272 W/m² | - |
| 1777987873 | 20.56° C | 68% | 1007.1 hPa | 0 mm | 0.45 m/s, 107° | 276 W/m² | - |
| 1777987273 | 20.56° C | 68% | 1007.1 hPa | 0 mm | 1.34 m/s, 80° | 335 W/m² | - |
| 1777986673 | 20° C | 70% | 1007.1 hPa | 0 mm | 0.45 m/s, 106° | 295 W/m² | - |
| 1777986073 | 20° C | 71% | 1007.3 hPa | 0 mm | 1.34 m/s, 92° | 762 W/m² | - |
| 1777985473 | 20.56° C | 68% | 1007.5 hPa | 0 mm | 1.34 m/s, 49° | 637 W/m² | - |
| 1777984872 | 20.56° C | 72% | 1007.7 hPa | 0 mm | 1.34 m/s, 139° | 369 W/m² | - |
| 1777984273 | 20° C | 73% | 1007.6 hPa | 0 mm | 0.89 m/s, 36° | 684 W/m² | - |
| 1777983673 | 19.44° C | 74% | 1007.7 hPa | 0 mm | 0.89 m/s, 82° | 631 W/m² | - |
| 1777983072 | 19.44° C | 75% | 1007.8 hPa | 0 mm | 0.89 m/s, 109° | 405 W/m² | - |
| 1777982472 | 19.44° C | 74% | 1007.9 hPa | 0 mm | 0.89 m/s, 94° | 395 W/m² | - |
| 1777981872 | 19.44° C | 75% | 1008 hPa | 0 mm | 0 m/s | 327 W/m² | - |
* Rain latest hour (hover to see other rain measurements)
** Current wind speed in m/s (hover to see current wind gust speed)